Time;durP1;ratioP1;P1;durP2;ratioP2;P2;SDS_P1;SDS_P2;PMS_P1;PMS_P2;Temp;Humidity;BMP_temperature;BMP_pressure;BME280_temperature;BME280_humidity;BME280_pressure;Samples;Min_cycle;Max_cycle;Signal;HPM_P1;HPM_P2
2023/08/29 00:01:02;;;;;;;1.30;0.73;;;12.20;99.90;;;;;;5079032;28;20406;-67
2023/08/29 00:03:28;;;;;;;1.45;0.90;;;12.20;99.90;;;;;;5098831;28;20494;-67
2023/08/29 00:06:04;;;;;;;3.65;0.73;;;12.20;99.90;;;;;;5083459;28;20078;-67
2023/08/29 00:08:30;;;;;;;0.98;0.60;;;12.10;99.90;;;;;;5090394;28;20131;-67
2023/08/29 00:10:59;;;;;;;3.97;0.88;;;12.10;99.90;;;;;;5095799;28;20036;-67
2023/08/29 00:13:25;;;;;;;0.93;0.75;;;12.10;99.90;;;;;;5093140;28;20389;-67
2023/08/29 00:15:52;;;;;;;1.20;0.90;;;12.20;99.90;;;;;;5094181;28;20030;-67
2023/08/29 00:18:21;;;;;;;0.77;0.50;;;12.10;99.90;;;;;;5079499;28;20505;-67
2023/08/29 00:20:47;;;;;;;1.55;0.90;;;12.20;99.90;;;;;;5093819;28;20035;-67
2023/08/29 00:23:13;;;;;;;3.22;0.93;;;12.10;99.90;;;;;;5081429;28;20093;-67
2023/08/29 00:25:39;;;;;;;2.33;0.95;;;12.10;99.90;;;;;;5082887;28;20040;-67
2023/08/29 00:28:04;;;;;;;1.10;0.45;;;12.10;99.90;;;;;;5097841;28;20494;-67
2023/08/29 00:30:37;;;;;;;0.43;0.40;;;12.10;99.90;;;;;;5097191;28;20035;-66
2023/08/29 00:33:03;;;;;;;2.97;0.60;;;12.10;99.90;;;;;;5098359;28;20119;-67
2023/08/29 00:35:29;;;;;;;1.10;0.80;;;11.90;99.90;;;;;;5099496;28;20110;-67
2023/08/29 00:37:55;;;;;;;1.55;0.40;;;12.00;99.90;;;;;;5099843;28;20115;-67
2023/08/29 00:40:21;;;;;;;1.67;0.73;;;11.90;99.90;;;;;;5103987;28;20035;-67
2023/08/29 00:42:47;;;;;;;1.40;1.30;;;11.90;99.90;;;;;;5100871;28;20478;-67
2023/08/29 00:45:13;;;;;;;1.30;0.75;;;11.90;99.90;;;;;;5121557;27;20039;-67
2023/08/29 00:47:40;;;;;;;2.08;0.82;;;11.90;99.90;;;;;;5095498;28;20031;-67
2023/08/29 00:50:07;;;;;;;2.08;0.93;;;12.00;99.90;;;;;;5102050;28;20039;-67
2023/08/29 00:52:33;;;;;;;4.30;0.60;;;12.00;99.90;;;;;;5101650;28;20484;-67
2023/08/29 00:55:00;;;;;;;1.25;0.70;;;12.00;99.90;;;;;;5103187;28;20035;-67
2023/08/29 00:57:25;;;;;;;2.35;0.80;;;11.90;99.90;;;;;;5101033;28;20134;-67
2023/08/29 00:59:51;;;;;;;1.52;0.70;;;11.90;99.90;;;;;;5080040;28;20071;-67
2023/08/29 01:02:17;;;;;;;2.03;0.50;;;11.90;99.90;;;;;;5098894;28;20051;-67
2023/08/29 01:04:42;;;;;;;0.40;0.35;;;11.80;99.90;;;;;;5085181;28;20064;-67
2023/08/29 01:07:08;;;;;;;0.98;0.63;;;11.80;99.90;;;;;;5103990;28;20040;-67
2023/08/29 01:09:35;;;;;;;2.78;0.50;;;11.80;99.90;;;;;;5098324;28;20119;-67
2023/08/29 01:12:09;;;;;;;1.33;0.47;;;11.80;99.90;;;;;;5101208;28;20511;-67
2023/08/29 01:14:59;;;;;;;0.95;0.50;;;11.80;99.90;;;;;;5083589;28;20044;-67
2023/08/29 01:17:41;;;;;;;4.78;0.60;;;11.70;99.90;;;;;;5098755;28;20035;-67
2023/08/29 01:20:08;;;;;;;2.08;0.65;;;11.70;99.90;;;;;;5072747;28;20046;-67
2023/08/29 01:23:12;;;;;;;3.10;0.70;;;11.60;99.90;;;;;;5078785;28;20036;-67
2023/08/29 01:25:52;;;;;;;0.80;0.57;;;11.60;99.90;;;;;;5098038;28;20050;-67
2023/08/29 01:28:19;;;;;;;0.90;0.70;;;11.50;99.90;;;;;;5095513;28;20047;-67
2023/08/29 01:30:45;;;;;;;2.20;0.65;;;11.50;99.90;;;;;;5100927;28;20446;-67
2023/08/29 01:33:12;;;;;;;2.35;0.98;;;11.50;99.90;;;;;;5082282;28;20047;-67
2023/08/29 01:35:47;;;;;;;3.30;1.83;;;11.50;99.90;;;;;;5101854;28;20063;-67
2023/08/29 01:38:15;;;;;;;3.20;1.65;;;11.60;99.90;;;;;;5101290;28;20058;-67
2023/08/29 01:40:40;;;;;;;1.45;1.00;;;11.50;99.90;;;;;;5114388;27;20098;-67
2023/08/29 01:43:06;;;;;;;3.85;1.25;;;11.50;99.90;;;;;;5101151;28;20044;-67
2023/08/29 01:45:32;;;;;;;1.83;1.20;;;11.50;99.90;;;;;;5084361;28;20032;-67
2023/08/29 01:47:58;;;;;;;4.60;1.27;;;11.50;99.90;;;;;;5075370;28;20086;-67
2023/08/29 01:50:25;;;;;;;1.42;0.82;;;11.60;99.90;;;;;;5098253;28;20063;-67
2023/08/29 01:52:52;;;;;;;1.27;1.02;;;11.60;99.90;;;;;;5101267;28;20042;-67
2023/08/29 01:55:18;;;;;;;2.40;1.48;;;11.60;99.90;;;;;;5099092;28;20036;-66
2023/08/29 01:57:46;;;;;;;2.17;1.00;;;11.60;99.90;;;;;;5093131;28;20036;-67
2023/08/29 02:00:12;;;;;;;1.48;1.10;;;11.60;99.90;;;;;;5098093;28;20048;-66
2023/08/29 02:02:38;;;;;;;3.20;1.00;;;11.60;99.90;;;;;;5101248;28;20059;-67
2023/08/29 02:05:04;;;;;;;2.00;1.33;;;11.60;99.90;;;;;;5099381;28;20044;-67
2023/08/29 02:07:30;;;;;;;2.15;0.70;;;11.50;99.90;;;;;;5086823;28;20036;-67
2023/08/29 02:09:55;;;;;;;0.80;0.60;;;11.50;99.90;;;;;;5083369;28;20130;-66
2023/08/29 02:12:21;;;;;;;2.88;0.98;;;11.50;99.90;;;;;;5091805;28;20145;-66
2023/08/29 02:14:47;;;;;;;4.35;0.90;;;11.50;99.90;;;;;;5098728;28;20028;-67
2023/08/29 02:17:13;;;;;;;2.90;0.80;;;11.40;99.90;;;;;;5099658;28;20088;-66
2023/08/29 02:19:38;;;;;;;4.75;1.35;;;11.30;99.90;;;;;;5100195;28;20460;-66
2023/08/29 02:22:04;;;;;;;0.98;0.70;;;11.30;99.90;;;;;;5083170;28;20133;-66
2023/08/29 02:24:30;;;;;;;13.85;1.15;;;11.20;99.90;;;;;;5100137;28;20529;-67
2023/08/29 02:26:55;;;;;;;5.13;1.02;;;11.20;99.90;;;;;;5064112;28;20048;-66
2023/08/29 02:29:21;;;;;;;1.00;0.90;;;11.20;99.90;;;;;;5097901;28;20383;-67
2023/08/29 02:31:46;;;;;;;0.80;0.60;;;11.20;99.90;;;;;;5099672;28;20088;-66
2023/08/29 02:34:12;;;;;;;2.45;0.80;;;11.20;99.90;;;;;;5082799;28;20044;-67
2023/08/29 02:36:37;;;;;;;2.22;0.85;;;11.20;99.90;;;;;;5091724;28;20035;-67
2023/08/29 02:39:03;;;;;;;0.60;0.43;;;11.20;99.90;;;;;;5097640;28;20406;-66
2023/08/29 02:41:29;;;;;;;1.48;1.10;;;11.10;99.90;;;;;;5095104;28;20051;-66
2023/08/29 02:43:55;;;;;;;1.13;0.95;;;11.10;99.90;;;;;;5103675;28;20505;-66
2023/08/29 02:46:21;;;;;;;1.65;1.10;;;11.10;99.90;;;;;;5112151;27;20142;-66
2023/08/29 02:48:46;;;;;;;2.13;0.88;;;11.10;99.90;;;;;;5094873;28;20043;-66
2023/08/29 02:51:12;;;;;;;2.15;0.70;;;11.20;99.90;;;;;;5101100;28;20035;-66
2023/08/29 02:53:38;;;;;;;0.65;0.60;;;11.20;99.90;;;;;;5100367;28;20039;-66
2023/08/29 02:56:03;;;;;;;1.10;0.60;;;11.20;99.90;;;;;;5109518;27;20448;-66
2023/08/29 02:58:29;;;;;;;1.48;0.63;;;11.20;99.90;;;;;;5095856;28;20465;-66
2023/08/29 03:00:56;;;;;;;0.55;0.50;;;11.10;99.90;;;;;;5082562;28;20036;-66
2023/08/29 03:03:22;;;;;;;0.65;0.50;;;11.10;99.90;;;;;;5076668;28;20097;-66
2023/08/29 03:05:55;;;;;;;0.90;0.55;;;11.10;99.90;;;;;;5079531;28;20055;-66
2023/08/29 03:08:21;;;;;;;2.05;0.52;;;11.10;99.90;;;;;;5096637;28;20036;-66
2023/08/29 03:10:46;;;;;;;1.25;0.50;;;11.10;99.90;;;;;;5078819;28;20036;-66
2023/08/29 03:13:12;;;;;;;0.60;0.55;;;11.10;99.90;;;;;;5061015;28;20121;-66
2023/08/29 03:15:40;;;;;;;0.50;0.30;;;11.10;99.90;;;;;;5092833;28;20482;-66
2023/08/29 03:18:05;;;;;;;1.58;0.52;;;11.10;99.90;;;;;;5076041;28;20442;-66
2023/08/29 03:20:31;;;;;;;1.60;0.50;;;11.00;99.90;;;;;;5077141;28;20071;-66
2023/08/29 03:22:57;;;;;;;2.15;0.60;;;11.00;99.90;;;;;;5098047;28;20032;-66
2023/08/29 03:25:22;;;;;;;1.20;0.90;;;11.00;99.90;;;;;;5077328;28;20035;-66
2023/08/29 03:27:49;;;;;;;1.25;0.90;;;11.00;99.90;;;;;;5069915;28;20097;-66
2023/08/29 03:30:15;;;;;;;2.15;0.70;;;11.00;99.90;;;;;;5099248;28;20042;-66
2023/08/29 03:32:41;;;;;;;5.10;0.63;;;10.90;99.90;;;;;;5078263;28;20075;-66
2023/08/29 03:35:07;;;;;;;1.13;0.63;;;10.90;99.90;;;;;;5080169;28;20071;-66
2023/08/29 03:37:33;;;;;;;1.48;0.70;;;10.80;99.90;;;;;;5095138;28;20403;-66
2023/08/29 03:39:59;;;;;;;3.13;0.55;;;10.70;99.90;;;;;;5091940;28;20048;-66
2023/08/29 03:42:24;;;;;;;1.85;0.80;;;10.60;99.90;;;;;;5079008;28;20391;-66
2023/08/29 03:44:50;;;;;;;1.08;0.50;;;10.60;99.90;;;;;;5098272;28;20035;-66
2023/08/29 03:47:15;;;;;;;1.00;0.65;;;10.60;99.90;;;;;;5096350;28;20174;-66
2023/08/29 03:49:41;;;;;;;0.60;0.60;;;10.60;99.90;;;;;;5096370;28;20040;-66
2023/08/29 03:52:07;;;;;;;0.50;0.47;;;10.60;99.90;;;;;;5080808;28;20040;-66
2023/08/29 03:54:32;;;;;;;0.50;0.45;;;10.60;99.90;;;;;;5080096;28;20043;-66
2023/08/29 03:56:58;;;;;;;0.73;0.50;;;10.60;99.90;;;;;;5096966;28;20031;-66
2023/08/29 03:59:23;;;;;;;0.60;0.40;;;10.60;99.90;;;;;;5082339;28;20089;-66
2023/08/29 04:01:49;;;;;;;0.80;0.30;;;10.60;99.90;;;;;;5078767;28;20391;-66
2023/08/29 04:04:14;;;;;;;2.45;0.40;;;10.60;99.90;;;;;;5083250;28;20050;-66
2023/08/29 04:06:41;;;;;;;1.27;0.50;;;10.60;99.90;;;;;;5077979;28;20047;-66
2023/08/29 04:09:08;;;;;;;0.60;0.40;;;10.60;99.90;;;;;;5057135;28;20076;-66
2023/08/29 04:11:34;;;;;;;1.92;1.25;;;10.60;99.90;;;;;;5098729;28;20402;-66
2023/08/29 04:14:00;;;;;;;2.05;1.00;;;10.50;99.90;;;;;;5097085;28;20035;-66
2023/08/29 04:16:26;;;;;;;0.55;0.30;;;10.50;99.90;;;;;;5079009;28;20048;-66
2023/08/29 04:18:51;;;;;;;0.80;0.50;;;10.40;99.90;;;;;;5094856;28;20111;-66
2023/08/29 04:21:17;;;;;;;0.85;0.52;;;10.40;99.90;;;;;;5075518;28;20078;-66
2023/08/29 04:23:42;;;;;;;2.25;0.50;;;10.40;99.90;;;;;;5096919;28;20039;-66
2023/08/29 04:26:08;;;;;;;0.60;0.50;;;10.40;99.90;;;;;;5090854;28;20414;-66
2023/08/29 04:28:34;;;;;;;0.60;0.45;;;10.40;99.90;;;;;;5096564;28;20458;-66
2023/08/29 04:31:09;;;;;;;1.00;0.75;;;10.40;99.90;;;;;;5084471;28;20079;-66
2023/08/29 04:33:35;;;;;;;1.00;0.63;;;10.40;99.90;;;;;;5093663;28;20058;-66
2023/08/29 04:36:00;;;;;;;3.03;0.43;;;10.40;99.90;;;;;;5075313;28;20498;-66
2023/08/29 04:38:26;;;;;;;1.20;0.40;;;10.30;99.90;;;;;;5073239;28;21522;-66
2023/08/29 04:40:55;;;;;;;1.58;0.63;;;10.30;99.90;;;;;;5077139;28;20047;-66
2023/08/29 04:43:20;;;;;;;0.90;0.70;;;10.30;99.90;;;;;;5114094;28;20108;-66
2023/08/29 04:45:46;;;;;;;1.63;1.00;;;10.30;99.90;;;;;;5093120;28;20036;-66
2023/08/29 04:48:12;;;;;;;1.80;0.73;;;10.30;99.90;;;;;;5077454;28;20131;-66
2023/08/29 04:50:37;;;;;;;3.42;0.73;;;10.30;99.90;;;;;;5094688;28;20090;-66
2023/08/29 04:53:03;;;;;;;4.40;0.88;;;10.30;99.90;;;;;;5064270;28;20039;-66
2023/08/29 04:55:29;;;;;;;1.38;0.65;;;10.30;99.90;;;;;;5094713;28;20036;-66
2023/08/29 04:57:56;;;;;;;2.05;0.60;;;10.20;99.90;;;;;;5097618;28;20105;-66
2023/08/29 05:00:22;;;;;;;1.58;0.55;;;10.20;99.90;;;;;;5100115;28;20036;-66
2023/08/29 05:02:48;;;;;;;0.82;0.68;;;10.20;99.90;;;;;;5096592;28;20386;-66
2023/08/29 05:05:14;;;;;;;2.90;1.40;;;10.20;99.90;;;;;;5093506;28;20040;-66
2023/08/29 05:07:39;;;;;;;1.20;0.63;;;10.30;99.90;;;;;;5093702;28;20371;-66
2023/08/29 05:10:06;;;;;;;1.23;0.65;;;10.30;99.90;;;;;;5108016;28;20040;-66
2023/08/29 05:12:32;;;;;;;0.68;0.60;;;10.30;99.90;;;;;;5096536;28;20078;-66
2023/08/29 05:14:58;;;;;;;0.65;0.65;;;10.30;99.90;;;;;;5097265;28;20032;-66
2023/08/29 05:17:23;;;;;;;0.68;0.50;;;10.40;99.90;;;;;;5081131;28;20575;-66
2023/08/29 05:19:51;;;;;;;1.10;0.73;;;10.40;99.90;;;;;;5082541;28;20047;-66
2023/08/29 05:22:17;;;;;;;3.00;0.55;;;10.40;99.90;;;;;;5100285;28;20413;-66
2023/08/29 05:24:42;;;;;;;2.13;1.48;;;10.40;99.90;;;;;;5105682;28;20028;-66
2023/08/29 05:27:08;;;;;;;1.42;0.80;;;10.50;99.90;;;;;;5102137;28;20433;-66
2023/08/29 05:29:33;;;;;;;2.03;1.05;;;10.60;99.90;;;;;;5078014;28;20040;-66
2023/08/29 05:31:59;;;;;;;2.00;0.77;;;10.70;99.90;;;;;;5080351;28;20482;-66
2023/08/29 05:34:24;;;;;;;2.05;1.08;;;10.70;99.90;;;;;;5086870;28;20051;-66
2023/08/29 05:36:51;;;;;;;1.20;1.05;;;10.80;99.90;;;;;;5098526;28;20458;-66
2023/08/29 05:39:17;;;;;;;1.25;1.05;;;10.90;99.90;;;;;;5080801;28;20046;-66
2023/08/29 05:41:43;;;;;;;1.95;1.10;;;10.90;99.90;;;;;;5085539;28;20406;-66
2023/08/29 05:44:09;;;;;;;1.48;1.00;;;11.00;99.90;;;;;;5100662;28;20039;-66
2023/08/29 05:46:34;;;;;;;2.05;0.90;;;11.50;99.90;;;;;;5101074;28;20035;-66
2023/08/29 05:49:00;;;;;;;4.32;0.73;;;11.10;99.90;;;;;;5098685;28;20039;-66
2023/08/29 05:51:26;;;;;;;2.25;1.15;;;11.20;99.90;;;;;;5080810;28;20036;-66
2023/08/29 05:53:53;;;;;;;4.90;1.15;;;11.30;99.90;;;;;;5087071;28;20035;-66
2023/08/29 05:56:19;;;;;;;1.10;0.90;;;11.40;99.90;;;;;;5118096;27;20786;-66
2023/08/29 05:58:46;;;;;;;1.67;0.80;;;11.50;99.90;;;;;;5097465;28;20043;-66
2023/08/29 06:01:11;;;;;;;6.32;0.90;;;11.70;99.90;;;;;;5097323;28;20035;-66
2023/08/29 06:03:37;;;;;;;1.83;0.80;;;11.90;99.90;;;;;;5083381;28;20085;-66
2023/08/29 06:06:03;;;;;;;1.23;0.60;;;12.20;99.90;;;;;;5101240;28;20074;-66
2023/08/29 06:08:29;;;;;;;1.60;0.70;;;12.80;99.90;;;;;;5100796;28;20059;-66
2023/08/29 06:10:55;;;;;;;0.40;0.30;;;13.60;99.90;;;;;;5098010;28;20454;-66
2023/08/29 06:13:21;;;;;;;0.55;0.30;;;14.70;99.90;;;;;;5081668;28;20093;-66
2023/08/29 06:15:47;;;;;;;2.65;0.45;;;15.80;99.90;;;;;;5098956;28;20032;-66
2023/08/29 06:18:12;;;;;;;2.38;0.30;;;17.20;99.90;;;;;;5097895;28;20410;-66
2023/08/29 06:20:38;;;;;;;0.35;0.20;;;18.70;99.90;;;;;;5093327;28;20040;-66
2023/08/29 06:23:04;;;;;;;0.30;0.20;;;20.20;99.90;;;;;;5072029;28;20052;-66
2023/08/29 06:25:29;;;;;;;1.05;0.30;;;21.60;99.90;;;;;;5098188;28;20036;-66
2023/08/29 06:27:55;;;;;;;1.20;0.38;;;22.80;99.90;;;;;;5080829;28;20165;-66
2023/08/29 06:30:20;;;;;;;2.03;0.50;;;23.50;99.90;;;;;;5094478;28;20058;-66
2023/08/29 06:32:46;;;;;;;1.15;0.65;;;23.60;99.90;;;;;;5105637;28;20042;-66
2023/08/29 06:35:12;;;;;;;3.25;0.80;;;23.30;99.90;;;;;;5091461;28;20040;-66
2023/08/29 06:37:38;;;;;;;2.97;0.60;;;23.00;99.90;;;;;;5111668;27;20359;-66
2023/08/29 06:40:04;;;;;;;2.60;0.80;;;22.70;99.90;;;;;;5076887;28;20398;-66
2023/08/29 06:42:31;;;;;;;1.10;0.45;;;22.60;99.90;;;;;;5076073;28;20055;-66
2023/08/29 06:44:58;;;;;;;2.47;0.50;;;22.50;99.90;;;;;;5113294;27;20067;-66
2023/08/29 06:47:24;;;;;;;2.10;0.73;;;22.30;99.90;;;;;;5099810;28;20109;-66
2023/08/29 06:49:52;;;;;;;1.25;0.55;;;22.10;99.90;;;;;;5101602;28;20042;-66
2023/08/29 06:52:18;;;;;;;4.97;1.30;;;21.90;99.90;;;;;;5078968;28;20044;-66
2023/08/29 06:54:45;;;;;;;2.03;1.10;;;21.70;99.90;;;;;;5067589;28;20083;-66
2023/08/29 06:57:11;;;;;;;1.00;0.60;;;21.50;99.90;;;;;;5077035;28;20045;-66
2023/08/29 06:59:36;;;;;;;2.83;0.60;;;21.20;99.90;;;;;;5085809;28;20051;-66
2023/08/29 07:02:02;;;;;;;1.38;0.60;;;21.00;99.90;;;;;;5104110;28;20050;-66
2023/08/29 07:04:28;;;;;;;2.63;0.75;;;20.80;99.90;;;;;;5100505;28;20459;-66
2023/08/29 07:06:53;;;;;;;1.40;0.90;;;20.50;99.90;;;;;;5073683;28;20055;-66
2023/08/29 07:09:19;;;;;;;1.52;0.70;;;20.30;99.90;;;;;;5097762;28;20043;-66
2023/08/29 07:11:45;;;;;;;4.63;0.70;;;20.10;99.90;;;;;;5080238;28;20035;-66
2023/08/29 07:14:10;;;;;;;2.30;0.50;;;19.90;99.90;;;;;;5094702;28;20043;-66
2023/08/29 07:16:36;;;;;;;2.45;0.57;;;19.80;99.90;;;;;;5091803;28;20486;-66
2023/08/29 07:19:02;;;;;;;1.55;0.60;;;20.00;99.90;;;;;;5092205;28;20047;-66
2023/08/29 07:21:29;;;;;;;0.82;0.50;;;19.80;99.90;;;;;;5096868;28;20443;-66
2023/08/29 07:23:54;;;;;;;2.65;0.85;;;19.70;99.90;;;;;;5065686;28;20147;-66
2023/08/29 07:26:20;;;;;;;0.70;0.68;;;19.50;99.90;;;;;;5049696;28;20672;-66
2023/08/29 07:28:46;;;;;;;1.67;0.70;;;19.50;99.90;;;;;;5095076;28;20032;-66
2023/08/29 07:31:11;;;;;;;3.10;0.80;;;19.60;99.90;;;;;;5072790;28;20040;-66
2023/08/29 07:33:37;;;;;;;5.15;1.80;;;19.70;99.90;;;;;;5064042;28;20437;-66
2023/08/29 07:36:04;;;;;;;2.53;0.75;;;19.60;99.90;;;;;;5092857;28;20901;-66
2023/08/29 07:38:29;;;;;;;4.20;0.90;;;19.60;99.90;;;;;;5079268;28;20043;-66
2023/08/29 07:40:57;;;;;;;2.65;0.85;;;19.40;99.90;;;;;;5094963;28;20115;-66
2023/08/29 07:43:22;;;;;;;1.23;0.60;;;19.40;99.90;;;;;;5074621;28;20044;-66
2023/08/29 07:45:52;;;;;;;3.63;0.63;;;19.50;99.90;;;;;;5096373;28;20066;-66
2023/08/29 07:48:19;;;;;;;1.48;0.80;;;19.50;99.90;;;;;;5095490;28;20051;-66
2023/08/29 07:50:45;;;;;;;1.38;0.80;;;19.40;99.90;;;;;;5078736;28;20051;-67
2023/08/29 07:53:11;;;;;;;1.30;0.60;;;19.40;99.90;;;;;;5076970;28;20048;-66
2023/08/29 07:55:36;;;;;;;1.30;0.60;;;19.60;99.90;;;;;;5076876;28;20046;-67
2023/08/29 07:58:03;;;;;;;1.02;0.68;;;19.50;99.90;;;;;;5074761;28;20043;-66
2023/08/29 08:00:29;;;;;;;1.30;0.90;;;19.50;99.90;;;;;;5076519;28;20070;-66
2023/08/29 08:02:55;;;;;;;2.08;0.73;;;19.50;99.90;;;;;;5097883;28;20413;-66
2023/08/29 08:05:21;;;;;;;1.80;1.02;;;19.60;99.90;;;;;;5077988;28;20036;-67
2023/08/29 08:07:47;;;;;;;2.88;0.70;;;19.60;99.90;;;;;;5074187;28;20108;-67
2023/08/29 08:10:15;;;;;;;1.92;1.00;;;19.70;99.90;;;;;;5075061;28;20059;-67
2023/08/29 08:12:41;;;;;;;3.63;0.75;;;19.70;99.90;;;;;;5094117;28;20035;-66
2023/08/29 08:15:08;;;;;;;2.33;0.55;;;19.70;99.90;;;;;;5075723;28;21044;-65
2023/08/29 08:17:34;;;;;;;2.65;0.60;;;19.70;99.90;;;;;;5112493;27;20036;-66
2023/08/29 08:20:00;;;;;;;2.38;0.65;;;19.80;99.90;;;;;;5098532;28;20126;-66
2023/08/29 08:22:26;;;;;;;0.95;0.50;;;19.90;99.90;;;;;;5088337;28;20589;-67
2023/08/29 08:24:51;;;;;;;1.65;0.60;;;19.90;99.90;;;;;;5096112;28;20111;-67
2023/08/29 08:27:17;;;;;;;2.53;0.50;;;19.90;99.90;;;;;;5096106;28;20090;-67
2023/08/29 08:29:43;;;;;;;2.13;0.47;;;20.00;99.90;;;;;;5073671;28;20043;-67
2023/08/29 08:32:09;;;;;;;3.13;0.70;;;20.00;99.90;;;;;;5107256;28;20039;-67
2023/08/29 08:34:34;;;;;;;4.35;0.85;;;20.10;99.90;;;;;;5095217;28;20550;-67
2023/08/29 08:37:00;;;;;;;3.42;1.13;;;20.20;99.90;;;;;;5077136;28;20040;-67
2023/08/29 08:39:26;;;;;;;1.33;0.65;;;20.20;99.90;;;;;;5077377;28;20058;-66
2023/08/29 08:41:52;;;;;;;2.22;1.02;;;20.30;99.90;;;;;;5072071;28;20085;-67
2023/08/29 08:44:21;;;;;;;3.55;0.65;;;20.50;99.90;;;;;;5108702;28;20088;-67
2023/08/29 08:46:46;;;;;;;1.02;0.55;;;20.50;99.90;;;;;;5095156;28;20032;-67
2023/08/29 08:49:13;;;;;;;5.25;0.90;;;20.70;99.90;;;;;;5096924;28;20451;-67
2023/08/29 08:51:40;;;;;;;2.10;0.50;;;20.80;99.90;;;;;;5075863;28;20036;-67
2023/08/29 08:54:07;;;;;;;3.05;0.80;;;20.90;99.90;;;;;;5079078;28;20043;-66
2023/08/29 08:56:33;;;;;;;1.40;0.28;;;20.90;99.90;;;;;;5081790;28;20039;-68
2023/08/29 08:58:59;;;;;;;0.82;0.30;;;20.80;99.90;;;;;;5083256;28;20126;-68
2023/08/29 09:01:26;;;;;;;0.20;0.10;;;21.00;99.90;;;;;;5080073;28;20131;-67
2023/08/29 09:03:52;;;;;;;2.25;0.45;;;21.20;99.90;;;;;;5097587;28;20375;-67
2023/08/29 09:06:18;;;;;;;0.60;0.25;;;21.30;99.90;;;;;;5100460;28;20039;-67
2023/08/29 09:08:44;;;;;;;0.35;0.20;;;21.20;99.90;;;;;;5100378;28;20046;-68
2023/08/29 09:11:10;;;;;;;1.85;0.35;;;21.20;99.90;;;;;;5078426;28;20043;-66
2023/08/29 09:13:44;;;;;;;1.20;0.20;;;21.30;99.90;;;;;;5097783;28;20031;-67
2023/08/29 09:16:10;;;;;;;0.83;0.20;;;21.40;99.90;;;;;;5082004;28;20127;-68
2023/08/29 09:18:35;;;;;;;0.55;0.15;;;21.40;99.90;;;;;;5095858;28;20162;-67
2023/08/29 09:21:04;;;;;;;0.80;0.32;;;21.40;99.90;;;;;;5078203;28;20131;-66
2023/08/29 09:23:37;;;;;;;0.90;0.20;;;21.20;99.90;;;;;;5100556;28;20481;-65
2023/08/29 09:26:04;;;;;;;0.60;0.20;;;21.30;99.90;;;;;;5111625;27;20063;-65
2023/08/29 09:28:30;;;;;;;2.15;0.20;;;21.20;99.90;;;;;;5098668;28;20059;-66
2023/08/29 09:31:05;;;;;;;1.05;0.40;;;21.10;99.90;;;;;;5116270;27;20040;-66
2023/08/29 09:33:31;;;;;;;0.40;0.10;;;21.00;99.90;;;;;;5087030;28;20036;-66
2023/08/29 09:35:59;;;;;;;0.77;0.17;;;20.90;99.90;;;;;;5100352;28;20274;-64
2023/08/29 09:38:28;;;;;;;0.98;0.20;;;20.80;99.90;;;;;;5097778;28;20381;-65
2023/08/29 09:40:55;;;;;;;0.63;0.20;;;20.70;99.90;;;;;;5096591;28;20861;-65
2023/08/29 09:43:21;;;;;;;4.03;0.30;;;20.70;99.90;;;;;;5082929;28;20044;-65
2023/08/29 09:45:52;;;;;;;2.05;0.45;;;20.80;99.90;;;;;;5098326;28;20042;-66
2023/08/29 09:48:18;;;;;;;1.77;0.50;;;21.00;99.90;;;;;;5097466;28;20043;-66
2023/08/29 09:50:45;;;;;;;1.35;0.30;;;21.10;99.90;;;;;;5116090;27;20040;-66
2023/08/29 09:53:16;;;;;;;1.17;0.30;;;21.10;99.90;;;;;;5086441;28;20039;-66
2023/08/29 09:55:48;;;;;;;1.25;0.30;;;20.90;99.90;;;;;;5080185;28;20032;-66
2023/08/29 09:58:16;;;;;;;1.70;0.50;;;20.70;99.90;;;;;;5092231;28;20757;-66
2023/08/29 10:00:43;;;;;;;1.08;0.45;;;20.80;99.90;;;;;;5093802;28;20035;-66
2023/08/29 10:03:10;;;;;;;0.30;0.20;;;21.00;99.90;;;;;;5080837;28;20154;-66
2023/08/29 10:05:38;;;;;;;0.17;0.10;;;21.10;99.90;;;;;;5097516;28;20478;-66
2023/08/29 10:08:22;;;;;;;0.65;0.10;;;21.20;99.90;;;;;;5115480;27;20036;-66
2023/08/29 10:10:48;;;;;;;0.28;0.10;;;21.20;99.90;;;;;;5081418;28;20552;-66
2023/08/29 10:13:14;;;;;;;0.47;0.20;;;21.10;99.90;;;;;;5081598;28;20040;-66
2023/08/29 10:15:43;;;;;;;0.80;0.20;;;21.10;99.90;;;;;;5083394;28;20035;-66
2023/08/29 10:18:11;;;;;;;2.25;0.57;;;20.90;99.90;;;;;;5084465;28;20504;-66
2023/08/29 10:20:37;;;;;;;1.52;0.20;;;21.00;99.90;;;;;;5113064;27;20042;-66
2023/08/29 10:23:07;;;;;;;0.75;0.13;;;21.00;99.90;;;;;;5098253;28;20032;-66
2023/08/29 10:25:35;;;;;;;0.93;0.20;;;21.00;99.90;;;;;;5097242;28;20067;-66
2023/08/29 10:28:01;;;;;;;1.05;0.20;;;20.90;99.90;;;;;;5102956;28;20450;-66
2023/08/29 10:30:28;;;;;;;1.10;0.20;;;20.80;99.90;;;;;;5078072;28;20047;-66
2023/08/29 10:32:55;;;;;;;0.95;0.20;;;20.70;99.90;;;;;;5103675;28;20206;-66
2023/08/29 10:35:22;;;;;;;1.48;0.30;;;20.70;99.90;;;;;;5099664;28;20453;-66
2023/08/29 10:37:52;;;;;;;0.85;0.30;;;20.70;99.90;;;;;;5098202;28;20502;-66
2023/08/29 10:40:18;;;;;;;1.50;0.65;;;20.50;99.90;;;;;;5065916;28;20051;-66
2023/08/29 10:42:57;;;;;;;1.25;0.40;;;20.50;99.90;;;;;;5084261;28;20044;-66
2023/08/29 10:45:57;;;;;;;2.85;0.60;;;20.50;99.90;;;;;;5099314;28;20184;-66
2023/08/29 10:48:46;;;;;;;6.28;0.50;;;20.50;99.90;;;;;;5082066;28;20047;-66
2023/08/29 10:51:18;;;;;;;5.10;1.10;;;20.40;99.90;;;;;;5081434;28;20048;-66
2023/08/29 10:53:51;;;;;;;1.00;0.40;;;20.40;99.90;;;;;;5102086;28;20035;-66
2023/08/29 10:56:20;;;;;;;1.15;0.40;;;20.40;99.90;;;;;;5085485;28;20047;-66
2023/08/29 10:58:47;;;;;;;2.30;0.70;;;20.30;99.90;;;;;;5103284;28;20036;-66
2023/08/29 11:01:33;;;;;;;1.13;0.55;;;20.30;99.90;;;;;;5085200;28;20490;-66
2023/08/29 11:04:00;;;;;;;2.15;0.80;;;20.30;99.90;;;;;;5090417;28;20055;-66
2023/08/29 11:06:47;;;;;;;2.72;1.08;;;20.20;99.90;;;;;;5099366;28;20528;-66
2023/08/29 11:09:24;;;;;;;2.00;0.63;;;20.20;99.90;;;;;;5085311;28;20581;-66
2023/08/29 11:12:09;;;;;;;3.90;1.38;;;20.20;99.90;;;;;;5116531;27;20067;-66
2023/08/29 11:15:04;;;;;;;1.10;0.50;;;20.10;99.90;;;;;;5079007;28;20611;-66
2023/08/29 11:17:31;;;;;;;0.80;0.40;;;20.10;99.90;;;;;;5082238;28;20055;-66
2023/08/29 11:20:01;;;;;;;1.23;0.50;;;20.10;99.90;;;;;;5097261;28;20075;-66
2023/08/29 11:22:31;;;;;;;1.40;0.65;;;20.10;99.90;;;;;;5096047;28;20036;-66
2023/08/29 11:24:57;;;;;;;0.93;0.50;;;20.20;99.90;;;;;;5102692;28;20050;-66
2023/08/29 11:27:28;;;;;;;2.90;0.60;;;20.30;99.90;;;;;;5097623;28;20051;-66
2023/08/29 11:29:54;;;;;;;5.68;1.13;;;20.50;99.90;;;;;;5081908;28;20510;-66
2023/08/29 11:32:20;;;;;;;1.40;0.65;;;20.60;99.90;;;;;;5082697;28;20036;-66
2023/08/29 11:34:53;;;;;;;2.75;0.50;;;20.70;99.90;;;;;;5090267;28;20546;-66
2023/08/29 11:37:21;;;;;;;1.75;0.65;;;20.70;99.90;;;;;;5092585;28;20497;-66
2023/08/29 11:39:58;;;;;;;2.13;0.43;;;20.80;99.90;;;;;;5097887;28;20032;-66
2023/08/29 11:42:28;;;;;;;1.55;0.60;;;20.90;99.90;;;;;;5076600;28;20051;-66
2023/08/29 11:44:54;;;;;;;0.90;0.55;;;21.00;99.90;;;;;;5103403;28;20042;-67
2023/08/29 11:47:20;;;;;;;1.05;0.65;;;21.20;99.90;;;;;;5067601;28;20043;-66
2023/08/29 11:49:50;;;;;;;0.85;0.50;;;21.20;99.90;;;;;;5095789;28;20076;-66
2023/08/29 11:52:16;;;;;;;2.03;0.73;;;21.30;99.90;;;;;;5075751;28;20174;-66
2023/08/29 11:54:46;;;;;;;1.33;0.60;;;21.30;99.90;;;;;;5095174;28;20024;-66
2023/08/29 11:57:12;;;;;;;2.90;1.08;;;21.30;99.90;;;;;;5098096;28;20393;-66
2023/08/29 11:59:42;;;;;;;0.80;0.50;;;21.60;99.90;;;;;;5068026;28;20047;-66
2023/08/29 12:02:10;;;;;;;2.65;0.60;;;22.10;99.90;;;;;;5107547;27;20078;-66
2023/08/29 12:04:47;;;;;;;2.50;0.47;;;22.40;99.90;;;;;;5094773;28;20518;-66
2023/08/29 12:07:13;;;;;;;0.70;0.40;;;22.60;99.90;;;;;;5100645;28;20048;-66
2023/08/29 12:09:43;;;;;;;2.75;0.63;;;22.70;99.90;;;;;;5118507;27;20048;-66
2023/08/29 12:12:29;;;;;;;1.35;0.47;;;22.70;99.90;;;;;;5085559;28;20542;-66
2023/08/29 12:14:54;;;;;;;;;;;22.50;99.90;;;;;;5088661;28;20055;-65
2023/08/29 12:17:20;;;;;;;1.75;0.60;;;22.40;99.90;;;;;;5085079;28;19919;-66
2023/08/29 12:19:47;;;;;;;1.73;0.73;;;22.30;99.90;;;;;;5078510;28;20130;-66
2023/08/29 12:22:13;;;;;;;1.17;0.70;;;22.20;99.90;;;;;;5082463;28;20048;-66
2023/08/29 12:24:39;;;;;;;1.80;0.75;;;22.30;99.90;;;;;;5097469;28;20440;-66
2023/08/29 12:27:06;;;;;;;1.35;0.40;;;22.30;99.90;;;;;;5078381;28;20048;-66
2023/08/29 12:29:32;;;;;;;2.15;0.60;;;22.30;99.90;;;;;;5084286;28;20494;-66
2023/08/29 12:31:58;;;;;;;1.70;0.70;;;22.30;99.90;;;;;;5107216;28;20051;-66
2023/08/29 12:34:23;;;;;;;0.57;0.40;;;22.30;99.90;;;;;;5108252;28;20031;-66
2023/08/29 12:36:49;;;;;;;3.15;0.70;;;22.20;99.90;;;;;;5086952;28;20036;-66
2023/08/29 12:39:15;;;;;;;1.45;0.68;;;22.10;99.90;;;;;;5080064;28;20047;-66
2023/08/29 12:41:41;;;;;;;1.35;0.52;;;22.10;99.90;;;;;;5099280;28;20569;-66
2023/08/29 12:44:06;;;;;;;1.90;0.57;;;22.00;99.90;;;;;;5085279;28;20056;-66
2023/08/29 12:46:34;;;;;;;2.40;0.98;;;21.80;99.90;;;;;;5082584;28;20059;-66
2023/08/29 12:49:01;;;;;;;1.95;0.50;;;21.70;99.90;;;;;;5104997;28;20044;-66